Time;durP1;ratioP1;P1;durP2;ratioP2;P2;SDS_P1;SDS_P2;PMS_P1;PMS_P2;Temp;Humidity;BMP_temperature;BMP_pressure;BME280_temperature;BME280_humidity;BME280_pressure;Samples;Min_cycle;Max_cycle;Signal;HPM_P1;HPM_P2
2022/07/31 00:01:33;;;;;;;2.47;2.28;;;19.80;66.20;;;;;;5006819;28;20413;-63
2022/07/31 00:03:59;;;;;;;2.45;2.25;;;19.80;65.60;;;;;;5006458;28;20046;-63
2022/07/31 00:06:25;;;;;;;2.45;2.25;;;19.70;66.20;;;;;;5006881;28;20061;-63
2022/07/31 00:08:50;;;;;;;2.42;2.05;;;19.70;65.40;;;;;;5006210;28;20036;-63
2022/07/31 00:11:16;;;;;;;2.40;2.20;;;19.70;65.40;;;;;;5000048;28;20033;-63
2022/07/31 00:13:42;;;;;;;2.50;2.30;;;19.70;65.70;;;;;;5002582;28;20041;-62
2022/07/31 00:16:08;;;;;;;2.17;2.03;;;19.70;65.90;;;;;;5005972;28;20045;-62
2022/07/31 00:18:36;;;;;;;2.22;2.03;;;19.70;65.90;;;;;;5006970;28;20089;-63
2022/07/31 00:21:02;;;;;;;2.95;2.20;;;19.70;65.90;;;;;;5002809;28;20121;-62
2022/07/31 00:23:28;;;;;;;2.20;2.10;;;19.80;65.90;;;;;;5004721;28;20533;-63
2022/07/31 00:25:54;;;;;;;2.40;2.20;;;19.70;65.80;;;;;;5004581;28;20065;-63
2022/07/31 00:28:20;;;;;;;2.45;2.25;;;19.80;65.80;;;;;;5006564;28;20068;-63
2022/07/31 00:30:46;;;;;;;2.58;2.00;;;19.70;65.70;;;;;;5002209;28;20057;-63
2022/07/31 00:33:13;;;;;;;3.35;2.30;;;19.80;65.90;;;;;;5006174;28;20033;-63
2022/07/31 00:35:38;;;;;;;2.28;2.08;;;19.70;65.90;;;;;;5005271;28;20041;-63
2022/07/31 00:38:04;;;;;;;2.28;2.08;;;19.80;65.90;;;;;;5007471;28;20057;-63
2022/07/31 00:40:30;;;;;;;2.42;2.20;;;19.80;65.60;;;;;;5007163;28;20034;-63
2022/07/31 00:42:55;;;;;;;2.47;2.20;;;19.80;65.70;;;;;;5003162;28;20171;-63
2022/07/31 00:45:21;;;;;;;2.40;2.20;;;19.80;66.00;;;;;;5007509;28;20030;-63
2022/07/31 00:47:46;;;;;;;2.92;2.17;;;19.70;66.00;;;;;;5005760;28;20417;-63
2022/07/31 00:50:12;;;;;;;2.50;2.30;;;19.70;65.90;;;;;;5003968;28;20112;-64
2022/07/31 00:52:38;;;;;;;2.45;2.30;;;19.70;66.00;;;;;;5003410;28;20064;-62
2022/07/31 00:55:04;;;;;;;3.17;2.30;;;19.70;66.20;;;;;;5003149;28;20050;-63
2022/07/31 00:57:30;;;;;;;3.00;2.35;;;19.70;66.40;;;;;;5006390;28;20053;-63
2022/07/31 00:59:55;;;;;;;2.53;2.28;;;19.60;66.40;;;;;;5003489;28;20026;-63
2022/07/31 01:02:21;;;;;;;2.40;2.22;;;19.60;66.40;;;;;;5007968;28;20124;-64
2022/07/31 01:04:47;;;;;;;2.35;2.15;;;19.60;66.50;;;;;;5012983;28;20049;-61
2022/07/31 01:07:12;;;;;;;2.60;2.40;;;19.50;66.50;;;;;;5004913;28;20486;-63
2022/07/31 01:09:38;;;;;;;2.78;2.10;;;19.50;66.80;;;;;;5010138;28;20677;-63
2022/07/31 01:12:21;;;;;;;2.40;2.20;;;19.50;66.60;;;;;;5004702;28;20038;-63
2022/07/31 01:14:49;;;;;;;2.20;2.10;;;19.40;67.20;;;;;;5009461;28;20207;-63
2022/07/31 01:17:16;;;;;;;2.40;2.20;;;19.40;67.10;;;;;;5008005;28;20117;-63
2022/07/31 01:19:47;;;;;;;2.45;2.25;;;19.40;67.30;;;;;;5012388;28;20030;-63
2022/07/31 01:22:15;;;;;;;2.60;2.40;;;19.40;67.80;;;;;;5011512;28;20034;-62
2022/07/31 01:25:04;;;;;;;2.97;2.40;;;19.30;67.60;;;;;;5012568;28;20036;-63
2022/07/31 01:27:53;;;;;;;2.50;2.30;;;19.30;67.90;;;;;;5006942;28;20037;-63
2022/07/31 01:30:24;;;;;;;3.13;2.33;;;19.30;68.40;;;;;;5008802;28;20566;-64
2022/07/31 01:32:52;;;;;;;2.70;2.50;;;19.30;67.90;;;;;;5008639;28;20112;-63
2022/07/31 01:35:24;;;;;;;2.47;2.28;;;19.30;67.60;;;;;;5008750;28;20037;-63
2022/07/31 01:37:55;;;;;;;2.85;2.65;;;19.20;67.40;;;;;;5008013;28;20041;-63
2022/07/31 01:40:46;;;;;;;3.35;2.53;;;19.20;68.00;;;;;;5011245;28;20464;-63
2022/07/31 01:43:18;;;;;;;4.25;2.50;;;19.20;68.80;;;;;;5009081;28;20077;-62
2022/07/31 01:45:46;;;;;;;2.63;2.30;;;19.20;68.20;;;;;;5007501;28;20124;-63
2022/07/31 01:48:13;;;;;;;2.35;2.10;;;19.10;67.80;;;;;;5008472;28;20061;-63
2022/07/31 01:50:42;;;;;;;2.63;2.20;;;19.10;68.10;;;;;;5004055;28;20033;-63
2022/07/31 01:53:09;;;;;;;3.22;2.50;;;19.00;68.30;;;;;;5007468;28;20034;-63
2022/07/31 01:55:37;;;;;;;3.03;2.47;;;19.00;68.70;;;;;;5009816;28;20563;-63
2022/07/31 01:58:04;;;;;;;3.30;2.30;;;18.90;68.50;;;;;;5006823;28;20480;-63
2022/07/31 02:00:29;;;;;;;2.60;2.40;;;18.90;68.60;;;;;;5008199;28;20390;-63
2022/07/31 02:02:57;;;;;;;2.63;2.42;;;18.80;68.60;;;;;;5004674;28;20022;-63
2022/07/31 02:05:24;;;;;;;2.63;2.42;;;18.80;68.60;;;;;;5009004;28;20041;-63
2022/07/31 02:07:52;;;;;;;2.53;2.30;;;18.80;68.90;;;;;;5014113;28;20115;-63
2022/07/31 02:10:18;;;;;;;2.90;2.58;;;18.70;68.90;;;;;;5013690;28;20072;-63
2022/07/31 02:12:44;;;;;;;4.13;2.65;;;18.70;69.00;;;;;;5007329;28;20128;-63
2022/07/31 02:15:12;;;;;;;2.92;2.35;;;18.60;69.00;;;;;;5012380;28;20064;-63
2022/07/31 02:17:40;;;;;;;2.80;2.60;;;18.60;69.30;;;;;;5014409;28;20133;-63
2022/07/31 02:20:08;;;;;;;2.50;2.30;;;18.60;69.30;;;;;;5013895;28;20042;-63
2022/07/31 02:22:34;;;;;;;2.60;2.10;;;18.50;69.40;;;;;;5011842;28;20057;-63
2022/07/31 02:25:01;;;;;;;2.80;2.63;;;18.50;69.40;;;;;;5011552;28;20061;-64
2022/07/31 02:27:28;;;;;;;2.40;2.20;;;18.40;69.30;;;;;;5013186;28;20095;-63
2022/07/31 02:29:56;;;;;;;2.78;2.58;;;18.40;69.30;;;;;;5011946;28;20057;-63
2022/07/31 02:32:22;;;;;;;2.88;2.58;;;18.40;69.50;;;;;;5013149;28;20243;-62
2022/07/31 02:34:48;;;;;;;3.00;2.40;;;18.30;69.90;;;;;;5012344;28;20501;-62
2022/07/31 02:37:16;;;;;;;2.80;2.22;;;18.30;70.10;;;;;;5008242;28;20121;-63
2022/07/31 02:39:43;;;;;;;2.65;2.45;;;18.20;70.20;;;;;;5006081;28;20045;-63
2022/07/31 02:42:09;;;;;;;2.58;2.38;;;18.20;70.50;;;;;;5009523;28;20053;-63
2022/07/31 02:44:37;;;;;;;2.97;2.40;;;18.20;70.50;;;;;;5008293;28;20173;-63
2022/07/31 02:47:04;;;;;;;2.78;2.17;;;18.20;70.60;;;;;;5003150;28;20042;-63
2022/07/31 02:49:32;;;;;;;2.40;2.20;;;18.20;70.60;;;;;;5008139;28;20061;-63
2022/07/31 02:51:58;;;;;;;2.33;2.13;;;18.20;70.60;;;;;;5007723;28;20034;-62
2022/07/31 02:54:23;;;;;;;4.20;2.28;;;18.20;70.40;;;;;;5007348;28;20033;-63
2022/07/31 02:56:51;;;;;;;2.58;2.22;;;18.10;70.30;;;;;;5009104;28;20384;-63
2022/07/31 02:59:17;;;;;;;2.30;2.10;;;18.20;70.30;;;;;;5011421;28;20584;-63
2022/07/31 03:01:42;;;;;;;2.60;2.42;;;18.20;70.20;;;;;;5008926;28;20037;-63
2022/07/31 03:04:08;;;;;;;2.40;2.20;;;18.10;70.20;;;;;;5008638;28;20057;-63
2022/07/31 03:06:34;;;;;;;2.60;2.40;;;18.10;70.40;;;;;;5006659;28;20038;-63
2022/07/31 03:09:00;;;;;;;4.53;2.15;;;18.10;70.40;;;;;;5007234;28;20088;-60
2022/07/31 03:11:26;;;;;;;2.97;2.40;;;18.10;70.40;;;;;;5006802;28;20144;-63
2022/07/31 03:13:54;;;;;;;2.28;2.10;;;18.00;70.60;;;;;;5010911;28;20041;-62
2022/07/31 03:16:21;;;;;;;3.25;2.35;;;18.10;70.60;;;;;;5006770;28;20046;-63
2022/07/31 03:18:47;;;;;;;5.80;2.28;;;18.00;70.50;;;;;;5007973;28;20038;-63
2022/07/31 03:21:13;;;;;;;5.78;2.45;;;18.00;70.60;;;;;;5006757;28;20041;-62
2022/07/31 03:23:40;;;;;;;2.20;2.10;;;18.00;70.70;;;;;;5007812;28;20450;-63
2022/07/31 03:26:06;;;;;;;2.70;2.50;;;17.90;70.80;;;;;;5005631;28;20042;-63
2022/07/31 03:28:34;;;;;;;2.47;2.28;;;17.90;70.90;;;;;;5009305;28;20556;-63
2022/07/31 03:31:00;;;;;;;3.60;2.30;;;17.90;71.20;;;;;;5007965;28;20490;-63
2022/07/31 03:33:26;;;;;;;3.15;2.33;;;17.90;71.30;;;;;;5002177;28;20025;-63
2022/07/31 03:35:52;;;;;;;2.38;2.17;;;17.90;71.60;;;;;;5007041;28;20038;-62
2022/07/31 03:38:18;;;;;;;3.50;2.47;;;17.90;71.60;;;;;;5007727;28;20038;-63
2022/07/31 03:40:43;;;;;;;4.97;2.40;;;17.90;71.70;;;;;;5009075;28;20048;-62
2022/07/31 03:43:10;;;;;;;3.65;2.38;;;17.90;71.90;;;;;;5007999;28;20038;-62
2022/07/31 03:45:38;;;;;;;2.80;2.53;;;17.90;71.90;;;;;;5005910;28;20180;-63
2022/07/31 03:48:04;;;;;;;2.65;2.42;;;17.90;72.10;;;;;;5003717;28;20223;-63
2022/07/31 03:50:30;;;;;;;2.67;2.47;;;17.90;72.00;;;;;;5006253;28;20049;-63
2022/07/31 03:52:57;;;;;;;2.83;2.60;;;17.90;72.40;;;;;;5007029;28;20038;-61
2022/07/31 03:55:24;;;;;;;2.60;2.40;;;17.90;72.30;;;;;;5006072;28;20045;-63
2022/07/31 03:57:51;;;;;;;3.13;2.50;;;17.90;72.40;;;;;;5006636;28;20033;-63
2022/07/31 04:00:19;;;;;;;4.95;2.50;;;18.00;72.60;;;;;;5008422;28;20084;-63
2022/07/31 04:02:44;;;;;;;2.92;2.40;;;18.00;72.60;;;;;;5002192;28;20319;-63
2022/07/31 04:05:10;;;;;;;2.67;2.47;;;18.00;72.80;;;;;;5001834;28;20040;-62
2022/07/31 04:07:36;;;;;;;2.80;2.60;;;18.00;73.70;;;;;;5007131;28;20033;-63
2022/07/31 04:10:02;;;;;;;2.70;2.50;;;18.00;72.90;;;;;;5006584;28;20045;-62
2022/07/31 04:12:27;;;;;;;3.25;2.50;;;18.10;72.90;;;;;;4999623;28;20100;-63
2022/07/31 04:14:53;;;;;;;2.90;2.47;;;18.10;73.00;;;;;;5007718;28;20038;-63
2022/07/31 04:17:19;;;;;;;2.30;2.20;;;18.10;73.00;;;;;;5005336;28;20382;-63
2022/07/31 04:19:44;;;;;;;2.90;2.60;;;18.20;73.00;;;;;;5005873;28;20038;-62
2022/07/31 04:22:10;;;;;;;4.30;2.60;;;18.20;72.80;;;;;;5005474;28;20125;-63
2022/07/31 04:24:35;;;;;;;2.50;2.30;;;18.20;73.00;;;;;;5003296;28;20041;-61
2022/07/31 04:27:03;;;;;;;3.63;2.50;;;18.30;73.00;;;;;;5006207;28;20054;-63
2022/07/31 04:29:28;;;;;;;2.40;2.20;;;18.30;73.20;;;;;;5007761;28;20037;-63
2022/07/31 04:31:54;;;;;;;2.40;2.20;;;18.30;73.40;;;;;;5004755;28;20441;-63
2022/07/31 04:34:20;;;;;;;4.50;2.58;;;18.30;73.30;;;;;;5010157;28;20045;-63
2022/07/31 04:36:46;;;;;;;2.88;2.67;;;18.40;73.20;;;;;;5006790;28;20045;-62
2022/07/31 04:39:11;;;;;;;3.97;2.70;;;18.40;73.40;;;;;;5010578;28;20112;-63
2022/07/31 04:41:37;;;;;;;2.75;2.42;;;18.60;73.50;;;;;;5011834;28;20030;-63
2022/07/31 04:44:02;;;;;;;2.53;2.33;;;18.50;73.10;;;;;;5011142;28;20036;-63
2022/07/31 04:46:28;;;;;;;2.58;2.38;;;18.60;72.80;;;;;;5007294;28;20096;-63
2022/07/31 04:48:54;;;;;;;3.17;2.40;;;18.60;72.80;;;;;;5011455;28;20047;-63
2022/07/31 04:51:21;;;;;;;2.70;2.50;;;18.60;72.50;;;;;;5009764;28;20588;-63
2022/07/31 04:53:47;;;;;;;2.47;2.25;;;18.60;72.70;;;;;;5011816;28;20524;-63
2022/07/31 04:58:57;;;;;;;2.30;2.10;;;18.80;72.80;;;;;;5010522;28;20616;-61
2022/07/31 05:01:23;;;;;;;4.20;2.40;;;18.80;72.60;;;;;;5012051;28;20106;-63
2022/07/31 05:03:49;;;;;;;2.60;2.35;;;18.90;72.60;;;;;;5010297;28;20410;-62
2022/07/31 05:06:14;;;;;;;2.42;2.22;;;19.00;72.50;;;;;;5008756;28;20048;-63
2022/07/31 05:08:40;;;;;;;2.50;2.30;;;19.00;72.50;;;;;;5010883;28;20029;-63
2022/07/31 05:11:21;;;;;;;3.53;2.42;;;19.10;72.60;;;;;;5007322;28;20458;-65
2022/07/31 05:13:58;;;;;;;2.50;2.30;;;19.10;72.80;;;;;;5006964;28;20490;-63
2022/07/31 05:16:25;;;;;;;4.32;2.45;;;19.20;73.00;;;;;;5013188;28;20386;-63
2022/07/31 05:18:51;;;;;;;5.00;2.40;;;19.20;72.50;;;;;;5007434;28;20045;-63
2022/07/31 05:21:18;;;;;;;3.58;2.20;;;19.30;72.70;;;;;;5008644;28;20030;-63
2022/07/31 05:23:45;;;;;;;2.67;2.47;;;19.30;72.60;;;;;;5005668;28;20041;-62
2022/07/31 05:26:11;;;;;;;2.45;2.22;;;19.40;72.30;;;;;;5006857;28;20037;-62
2022/07/31 05:28:38;;;;;;;3.25;2.30;;;19.40;72.00;;;;;;5010514;28;20486;-63
2022/07/31 05:31:05;;;;;;;2.40;2.20;;;19.50;72.00;;;;;;5008898;28;20038;-63
2022/07/31 05:33:31;;;;;;;3.63;2.20;;;19.50;72.00;;;;;;5006468;28;20054;-62
2022/07/31 05:35:57;;;;;;;2.80;2.60;;;19.60;71.80;;;;;;5005822;28;20072;-63
2022/07/31 05:38:22;;;;;;;2.78;2.10;;;19.60;71.80;;;;;;5011225;28;20702;-62
2022/07/31 05:40:48;;;;;;;2.38;2.13;;;19.60;71.50;;;;;;5010524;28;20030;-62
2022/07/31 05:43:14;;;;;;;2.40;2.20;;;19.60;71.40;;;;;;5008590;28;20038;-62
2022/07/31 05:45:40;;;;;;;2.45;2.25;;;19.70;71.60;;;;;;5007506;28;20038;-63
2022/07/31 05:48:06;;;;;;;2.97;2.33;;;19.70;71.60;;;;;;5010424;28;20049;-63
2022/07/31 05:50:34;;;;;;;2.53;2.22;;;19.70;72.00;;;;;;5006698;28;20045;-63
2022/07/31 05:53:00;;;;;;;3.17;2.60;;;19.70;72.00;;;;;;5003152;28;20612;-63
2022/07/31 05:55:26;;;;;;;2.38;2.28;;;19.70;72.00;;;;;;5010286;28;20130;-63
2022/07/31 05:57:52;;;;;;;2.65;2.33;;;19.70;72.10;;;;;;5002559;28;20038;-63
2022/07/31 06:00:19;;;;;;;2.45;2.25;;;19.80;72.30;;;;;;5008477;28;20026;-62
2022/07/31 06:02:45;;;;;;;4.70;2.50;;;19.80;72.20;;;;;;5012892;28;20130;-63
2022/07/31 06:05:11;;;;;;;3.80;2.63;;;19.80;72.20;;;;;;5011332;28;20562;-63
2022/07/31 06:07:36;;;;;;;2.83;2.63;;;19.90;72.10;;;;;;5011910;28;20285;-63
2022/07/31 06:10:02;;;;;;;2.78;2.58;;;19.90;72.00;;;;;;5009362;28;20041;-64
2022/07/31 06:12:28;;;;;;;2.78;2.58;;;19.90;72.10;;;;;;5006442;28;20108;-61
2022/07/31 06:14:54;;;;;;;3.00;2.80;;;20.00;72.10;;;;;;5012816;28;20501;-62
2022/07/31 06:17:19;;;;;;;3.13;2.90;;;20.00;72.10;;;;;;5007082;28;20033;-63
2022/07/31 06:19:45;;;;;;;3.10;2.80;;;20.10;72.30;;;;;;5010954;28;20034;-63
2022/07/31 06:22:10;;;;;;;2.80;2.60;;;20.10;72.40;;;;;;5012759;28;20037;-63
2022/07/31 06:24:36;;;;;;;2.80;2.60;;;20.10;72.30;;;;;;5014703;28;20029;-62
2022/07/31 06:27:02;;;;;;;3.92;2.50;;;20.20;72.30;;;;;;5012209;28;20053;-62
2022/07/31 06:29:28;;;;;;;2.40;2.22;;;20.30;72.30;;;;;;5013293;28;20117;-63
2022/07/31 06:31:54;;;;;;;4.32;2.30;;;20.30;72.30;;;;;;5010742;28;20137;-63
2022/07/31 06:34:20;;;;;;;2.78;2.38;;;20.40;72.30;;;;;;5012439;28;20038;-65
2022/07/31 06:36:45;;;;;;;2.70;2.50;;;20.40;72.30;;;;;;5011035;28;20088;-62
2022/07/31 06:39:11;;;;;;;3.65;2.58;;;20.50;72.20;;;;;;5010413;28;20320;-62
2022/07/31 06:41:43;;;;;;;2.95;2.13;;;20.60;72.00;;;;;;5012166;28;20046;-62
2022/07/31 06:44:10;;;;;;;2.17;2.08;;;20.70;72.00;;;;;;5010280;28;20498;-62
2022/07/31 06:46:36;;;;;;;2.53;2.03;;;20.80;71.90;;;;;;5007506;28;20037;-64
2022/07/31 06:49:01;;;;;;;3.50;1.85;;;20.90;71.30;;;;;;5010553;28;20045;-63
2022/07/31 06:51:27;;;;;;;2.25;1.83;;;20.90;70.90;;;;;;5012597;28;20038;-62
2022/07/31 06:53:52;;;;;;;2.40;2.00;;;21.10;70.70;;;;;;5009604;28;20375;-62
2022/07/31 06:56:18;;;;;;;2.72;2.17;;;21.20;70.10;;;;;;5004856;28;20493;-62
2022/07/31 06:58:44;;;;;;;2.67;2.10;;;21.30;70.20;;;;;;5006219;28;20076;-62
2022/07/31 07:01:09;;;;;;;4.53;1.83;;;21.30;69.90;;;;;;5004916;28;20149;-63
2022/07/31 07:03:35;;;;;;;2.55;2.00;;;21.50;69.70;;;;;;5006535;28;20112;-61
2022/07/31 07:06:02;;;;;;;2.17;1.60;;;21.60;69.60;;;;;;5009793;28;20037;-62
2022/07/31 07:08:28;;;;;;;2.08;1.60;;;21.70;69.50;;;;;;5009607;28;20034;-62
2022/07/31 07:10:54;;;;;;;3.65;1.27;;;21.70;67.60;;;;;;5012527;28;20337;-62
2022/07/31 07:13:19;;;;;;;1.73;1.63;;;21.80;67.20;;;;;;5007624;28;20026;-62
2022/07/31 07:15:45;;;;;;;1.85;1.42;;;21.90;67.10;;;;;;5007518;28;20026;-62
2022/07/31 07:18:11;;;;;;;2.42;1.40;;;22.00;66.70;;;;;;5011513;28;20038;-61
2022/07/31 07:20:36;;;;;;;3.55;1.58;;;22.10;66.50;;;;;;5009754;28;20498;-61
2022/07/31 07:23:03;;;;;;;1.50;1.40;;;22.20;65.90;;;;;;5000480;28;20038;-62
2022/07/31 07:25:28;;;;;;;1.98;1.58;;;22.30;65.60;;;;;;5006561;28;20041;-62
2022/07/31 07:27:55;;;;;;;1.30;1.20;;;22.40;65.40;;;;;;5004618;28;20029;-62
2022/07/31 07:30:21;;;;;;;1.40;1.30;;;22.50;64.40;;;;;;5007774;28;20038;-62
2022/07/31 07:32:47;;;;;;;1.95;1.40;;;22.60;63.80;;;;;;5008529;28;20376;-62
2022/07/31 07:35:13;;;;;;;1.85;1.30;;;22.70;63.70;;;;;;5005277;28;20497;-62
2022/07/31 07:37:39;;;;;;;1.77;1.13;;;22.70;63.50;;;;;;5005865;28;20030;-61
2022/07/31 07:40:07;;;;;;;3.92;1.50;;;22.90;63.20;;;;;;5004148;28;20519;-62
2022/07/31 07:42:32;;;;;;;2.30;1.50;;;22.90;62.70;;;;;;5006754;28;20034;-61
2022/07/31 07:44:58;;;;;;;2.92;1.60;;;23.10;62.90;;;;;;5006865;28;20030;-61
2022/07/31 07:47:24;;;;;;;1.83;1.30;;;23.20;62.30;;;;;;5010041;28;20091;-62
2022/07/31 07:49:49;;;;;;;1.67;1.08;;;23.30;62.40;;;;;;5004142;28;20061;-62
2022/07/31 07:52:15;;;;;;;1.27;1.17;;;23.40;61.80;;;;;;5002806;28;20165;-62
2022/07/31 07:54:42;;;;;;;1.02;0.77;;;23.50;60.50;;;;;;5003890;28;20037;-62
2022/07/31 07:57:17;;;;;;;2.83;1.25;;;23.70;59.60;;;;;;5001236;28;20564;-62
2022/07/31 07:59:43;;;;;;;1.33;1.10;;;23.80;59.20;;;;;;5006898;28;20045;-62
2022/07/31 08:02:11;;;;;;;2.65;1.10;;;23.90;59.50;;;;;;5008319;28;20045;-63
2022/07/31 08:04:36;;;;;;;1.75;1.25;;;24.00;58.70;;;;;;5010867;28;20066;-62
2022/07/31 08:07:02;;;;;;;2.33;1.20;;;24.10;58.00;;;;;;5007880;28;20058;-62
2022/07/31 08:09:29;;;;;;;1.83;1.02;;;24.10;58.00;;;;;;5006275;28;20986;-63
2022/07/31 08:11:54;;;;;;;3.53;1.08;;;24.20;57.60;;;;;;5004803;28;20041;-62
2022/07/31 08:14:20;;;;;;;1.48;0.98;;;24.30;56.90;;;;;;5012133;28;20108;-61
2022/07/31 08:16:46;;;;;;;1.15;0.93;;;24.40;56.70;;;;;;5010184;28;20038;-62
2022/07/31 08:19:12;;;;;;;1.98;1.00;;;24.40;56.40;;;;;;5009589;28;20123;-62
2022/07/31 08:21:38;;;;;;;0.98;0.90;;;24.50;56.40;;;;;;5011252;28;20062;-62
2022/07/31 08:24:05;;;;;;;0.88;0.88;;;24.60;55.80;;;;;;5011135;28;20562;-62
2022/07/31 08:27:22;;;;;;;0.90;0.85;;;24.70;56.00;;;;;;5005943;28;20034;-61
2022/07/31 08:29:17;;;;;;;4.32;1.10;;;24.70;54.80;;;;;;5008851;28;20041;-62
2022/07/31 08:31:42;;;;;;;0.80;0.80;;;24.80;54.90;;;;;;5007590;28;20490;-61
2022/07/31 08:34:08;;;;;;;2.25;0.93;;;24.90;54.40;;;;;;5007476;28;20036;-62
2022/07/31 08:36:34;;;;;;;2.35;0.90;;;25.00;53.60;;;;;;5011428;28;20503;-60
2022/07/31 08:39:02;;;;;;;1.15;1.00;;;25.00;53.60;;;;;;5008170;28;20497;-62
2022/07/31 08:41:28;;;;;;;0.80;0.70;;;25.10;53.00;;;;;;5011020;28;20155;-62
2022/07/31 08:43:55;;;;;;;0.80;0.80;;;25.10;52.20;;;;;;5009408;28;20464;-61
2022/07/31 08:46:21;;;;;;;1.02;0.80;;;25.20;52.70;;;;;;5009399;28;20498;-60
2022/07/31 08:48:52;;;;;;;0.93;0.90;;;25.20;52.50;;;;;;5010474;28;20042;-61
2022/07/31 08:51:18;;;;;;;0.82;0.80;;;25.30;52.20;;;;;;5010688;28;20034;-62
2022/07/31 08:53:45;;;;;;;3.72;0.90;;;25.30;51.60;;;;;;5009609;28;20101;-62
2022/07/31 08:56:11;;;;;;;0.77;0.65;;;25.40;51.80;;;;;;5008929;28;20042;-62
2022/07/31 08:58:37;;;;;;;1.08;0.80;;;25.50;51.60;;;;;;5006770;28;20041;-62
2022/07/31 09:01:03;;;;;;;1.40;0.98;;;25.50;51.00;;;;;;5011684;28;20525;-62
2022/07/31 09:03:29;;;;;;;3.80;0.73;;;25.50;51.00;;;;;;5012541;28;20536;-61
2022/07/31 09:05:54;;;;;;;1.95;0.98;;;25.60;51.10;;;;;;5011532;28;20030;-61
2022/07/31 09:08:20;;;;;;;1.52;0.65;;;25.70;51.30;;;;;;5011574;28;20052;-62
2022/07/31 09:10:46;;;;;;;1.27;0.90;;;25.70;50.80;;;;;;5006278;28;20041;-62
2022/07/31 09:13:15;;;;;;;1.60;1.02;;;25.80;50.30;;;;;;5006807;28;20551;-62
2022/07/31 09:15:41;;;;;;;1.15;0.60;;;25.90;49.70;;;;;;5011078;28;20038;-61
2022/07/31 09:18:20;;;;;;;2.67;0.70;;;26.10;49.00;;;;;;5013031;28;20493;-61
2022/07/31 09:20:59;;;;;;;1.67;0.70;;;26.10;47.10;;;;;;5013576;28;20038;-62
2022/07/31 09:23:26;;;;;;;0.90;0.60;;;26.20;46.70;;;;;;5012546;28;20030;-62
2022/07/31 09:25:56;;;;;;;0.75;0.70;;;26.40;47.00;;;;;;5015351;28;20038;-62
2022/07/31 09:28:32;;;;;;;1.17;0.60;;;26.50;47.00;;;;;;5008688;28;20092;-62
2022/07/31 09:30:58;;;;;;;0.63;0.50;;;26.60;45.60;;;;;;5014109;28;20033;-62
2022/07/31 09:33:28;;;;;;;0.60;0.60;;;26.60;45.50;;;;;;5012174;28;20465;-61
2022/07/31 09:35:54;;;;;;;3.58;0.73;;;26.70;45.20;;;;;;5013234;28;20058;-62
2022/07/31 09:38:20;;;;;;;1.48;0.68;;;26.70;45.80;;;;;;5012751;28;20557;-61
2022/07/31 09:40:45;;;;;;;0.80;0.80;;;26.80;45.80;;;;;;5013995;28;20038;-62
2022/07/31 09:43:23;;;;;;;1.70;0.95;;;26.80;45.70;;;;;;5009317;28;20040;-62
2022/07/31 09:46:02;;;;;;;0.88;0.70;;;26.90;44.10;;;;;;5013968;28;20022;-62
2022/07/31 09:48:27;;;;;;;1.83;0.68;;;26.90;42.80;;;;;;5012016;28;20040;-62
2022/07/31 09:50:57;;;;;;;1.52;0.70;;;26.90;44.50;;;;;;5003254;28;20038;-64
2022/07/31 09:53:23;;;;;;;0.60;0.60;;;27.00;44.20;;;;;;5004776;28;20211;-61
2022/07/31 09:55:53;;;;;;;0.80;0.80;;;27.00;45.20;;;;;;5010230;28;20582;-61
2022/07/31 09:58:20;;;;;;;0.68;0.60;;;27.00;44.10;;;;;;5005705;28;20034;-62
2022/07/31 10:00:48;;;;;;;0.70;0.60;;;27.10;44.70;;;;;;5007935;28;20113;-62
2022/07/31 10:03:17;;;;;;;1.25;0.60;;;27.10;44.30;;;;;;5006088;28;20057;-62
2022/07/31 10:05:43;;;;;;;0.60;0.60;;;27.20;43.70;;;;;;5009928;28;20026;-62
2022/07/31 10:08:11;;;;;;;1.70;0.70;;;27.20;43.50;;;;;;5014197;28;20065;-62
2022/07/31 10:10:37;;;;;;;1.45;0.52;;;27.30;43.60;;;;;;5007763;28;20033;-62
2022/07/31 10:13:07;;;;;;;1.10;0.65;;;27.30;43.60;;;;;;5010393;28;20449;-61
2022/07/31 10:15:35;;;;;;;1.35;0.55;;;27.40;43.30;;;;;;5012385;28;20080;-62
2022/07/31 10:18:02;;;;;;;0.60;0.50;;;27.40;42.60;;;;;;5013132;28;20033;-62
2022/07/31 10:20:29;;;;;;;0.55;0.55;;;27.50;43.10;;;;;;5014914;28;20030;-62
2022/07/31 10:23:00;;;;;;;1.63;0.55;;;27.50;43.20;;;;;;5012994;28;20109;-61
2022/07/31 10:25:30;;;;;;;0.50;0.50;;;27.60;41.50;;;;;;5010410;28;20291;-63
2022/07/31 10:27:56;;;;;;;0.50;0.50;;;27.70;41.40;;;;;;5010607;28;20037;-61
2022/07/31 10:30:23;;;;;;;0.63;0.63;;;27.70;42.10;;;;;;5011611;28;20180;-62
2022/07/31 10:32:49;;;;;;;0.60;0.60;;;27.80;41.20;;;;;;5011859;28;20402;-62
2022/07/31 10:35:16;;;;;;;0.60;0.60;;;27.80;41.00;;;;;;5011887;28;20037;-62
2022/07/31 10:38:02;;;;;;;1.00;0.50;;;27.80;40.30;;;;;;5013072;28;20509;-62
2022/07/31 10:40:47;;;;;;;0.85;0.50;;;27.90;40.50;;;;;;5015005;28;20045;-60
2022/07/31 10:43:42;;;;;;;0.45;0.45;;;28.00;40.00;;;;;;5011537;28;20128;-62
2022/07/31 10:46:08;;;;;;;0.50;0.50;;;28.00;40.40;;;;;;5011483;28;20320;-61
2022/07/31 10:48:33;;;;;;;0.63;0.45;;;28.10;41.60;;;;;;5009302;28;20406;-63
2022/07/31 10:51:04;;;;;;;1.48;0.60;;;28.10;40.70;;;;;;5012732;28;20041;-61
2022/07/31 10:53:30;;;;;;;0.65;0.50;;;28.20;40.80;;;;;;5013035;28;20094;-61
2022/07/31 10:56:01;;;;;;;0.80;0.60;;;28.20;40.30;;;;;;5006116;28;20050;-61
2022/07/31 10:58:28;;;;;;;0.98;0.60;;;28.20;40.00;;;;;;5009129;28;20184;-62
2022/07/31 11:01:05;;;;;;;0.75;0.70;;;28.20;40.70;;;;;;5013190;28;20049;-61
2022/07/31 11:03:45;;;;;;;2.70;0.70;;;28.20;40.00;;;;;;5007156;28;20026;-61
2022/07/31 11:06:14;;;;;;;0.70;0.70;;;28.20;40.10;;;;;;5011301;28;20478;-62
2022/07/31 11:08:45;;;;;;;2.15;0.70;;;28.20;41.00;;;;;;5012058;28;20076;-62
2022/07/31 11:11:12;;;;;;;0.60;0.60;;;28.20;40.80;;;;;;5010172;28;20452;-62
2022/07/31 11:13:54;;;;;;;1.00;0.88;;;28.20;41.30;;;;;;5011134;28;20042;-62
2022/07/31 11:16:20;;;;;;;1.33;0.50;;;28.20;40.50;;;;;;5011302;28;20132;-62
2022/07/31 11:19:01;;;;;;;0.50;0.50;;;28.20;40.90;;;;;;5008129;28;20042;-61
2022/07/31 11:21:36;;;;;;;1.40;0.55;;;28.20;41.40;;;;;;5004212;28;20029;-61
2022/07/31 11:24:17;;;;;;;0.50;0.50;;;28.30;41.90;;;;;;5013469;28;20034;-62
2022/07/31 11:26:52;;;;;;;1.00;0.75;;;28.40;41.00;;;;;;5010064;28;20038;-60
2022/07/31 11:29:36;;;;;;;1.05;0.70;;;28.40;40.10;;;;;;5010525;28;20037;-61
2022/07/31 11:32:04;;;;;;;1.80;0.60;;;28.40;40.20;;;;;;5009915;28;20037;-62
2022/07/31 11:34:52;;;;;;;0.60;0.60;;;28.40;41.50;;;;;;5011445;28;20125;-62
2022/07/31 11:37:21;;;;;;;2.45;0.70;;;28.40;41.40;;;;;;5010372;28;20417;-62
2022/07/31 11:39:48;;;;;;;1.23;0.70;;;28.40;41.90;;;;;;5013355;28;20034;-62
2022/07/31 11:42:13;;;;;;;1.13;0.80;;;28.40;41.30;;;;;;5011894;28;20052;-61
2022/07/31 11:44:39;;;;;;;0.95;0.60;;;28.50;42.10;;;;;;5013172;28;20425;-60
2022/07/31 11:47:05;;;;;;;1.02;0.73;;;28.50;41.00;;;;;;5010775;28;20030;-61
2022/07/31 11:49:35;;;;;;;1.30;0.88;;;28.50;40.80;;;;;;5013402;28;20095;-62
2022/07/31 11:52:10;;;;;;;0.80;0.63;;;28.50;40.80;;;;;;5011134;28;20029;-62
2022/07/31 11:54:37;;;;;;;1.00;0.70;;;28.40;40.80;;;;;;5012119;28;20117;-62
2022/07/31 11:57:04;;;;;;;0.50;0.50;;;28.40;41.10;;;;;;5011952;28;20144;-63
2022/07/31 11:59:38;;;;;;;0.70;0.70;;;28.40;40.90;;;;;;5010731;28;20045;-62
2022/07/31 12:02:11;;;;;;;1.70;0.90;;;28.40;41.00;;;;;;5010595;28;20057;-62
2022/07/31 12:04:38;;;;;;;0.77;0.60;;;28.40;41.00;;;;;;5002343;28;20195;-61
2022/07/31 12:07:08;;;;;;;0.68;0.65;;;28.40;42.60;;;;;;5008073;28;20383;-62
2022/07/31 12:09:35;;;;;;;0.95;0.85;;;28.50;42.00;;;;;;5008045;28;20370;-62
2022/07/31 12:12:03;;;;;;;1.05;0.70;;;28.50;40.60;;;;;;5003490;28;20037;-62
2022/07/31 12:14:36;;;;;;;0.60;0.60;;;28.50;40.90;;;;;;5012794;28;20037;-63
2022/07/31 12:17:04;;;;;;;1.10;0.70;;;28.60;41.60;;;;;;5008745;28;20048;-63
2022/07/31 12:19:34;;;;;;;1.05;0.70;;;28.60;41.80;;;;;;5011319;28;20116;-62
2022/07/31 12:22:11;;;;;;;1.75;0.80;;;28.70;41.40;;;;;;5010269;28;20498;-62
2022/07/31 12:24:38;;;;;;;0.95;0.90;;;28.80;40.90;;;;;;5008424;28;20362;-62
2022/07/31 12:27:05;;;;;;;1.38;0.70;;;28.90;40.50;;;;;;5010871;28;20049;-62
2022/07/31 12:29:35;;;;;;;0.73;0.70;;;29.00;40.80;;;;;;5009353;28;20485;-61
2022/07/31 12:32:02;;;;;;;0.88;0.65;;;29.10;41.10;;;;;;5009460;28;20034;-61
2022/07/31 12:34:28;;;;;;;0.75;0.70;;;29.20;41.50;;;;;;5008517;28;20100;-61
2022/07/31 12:36:58;;;;;;;1.23;0.65;;;29.30;41.00;;;;;;5010862;28;20425;-64
2022/07/31 12:39:24;;;;;;;1.65;0.80;;;29.40;40.40;;;;;;5004257;28;20069;-62
2022/07/31 12:41:50;;;;;;;0.77;0.63;;;29.50;40.30;;;;;;4998941;28;20113;-62
2022/07/31 12:44:15;;;;;;;2.30;0.80;;;29.60;40.40;;;;;;4997780;28;20103;-64
2022/07/31 12:46:41;;;;;;;0.50;0.50;;;29.60;40.10;;;;;;4987982;28;20164;-62
2022/07/31 12:49:07;;;;;;;0.63;0.63;;;29.70;40.20;;;;;;5003903;28;20044;-63
2022/07/31 12:51:33;;;;;;;1.25;0.80;;;29.80;40.20;;;;;;5006136;28;20045;-62
2022/07/31 12:54:02;;;;;;;1.02;0.50;;;29.90;40.30;;;;;;5003954;28;20500;-62